KFMM

Fort Morgan Municipal Airport

Fort Morgan, Colorado, USA
METAR KFMM 231615Z AUTO 22003KT 3SM BR CLR M05/M07 A3011 RMK AO2 T10481074
Observed Flight Rules
Feb-23 @ 16:15 UTC (26 minutes ago) Marginal Visual Flight Rules
Wind Visibility Clouds Conditions
220° at 3 knots 3 miles
  • Clear skies
  • Mist
Temperatures Readings
Current -5°C / 23°F
Dewpoint -7°C / 19°F
Humidity 86%
Altimeter 30.11" Hg
Pressure 1020 hPa
Elevation 1393
METAR KFMM 231615Z AUTO 22003KT 3SM BR CLR M05/M07 A3011 RMK AO2 T10481074
Observed Flight Rules
Feb-23 @ 16:15 UTC
(26 minutes ago)
MVFR
Wind Visibility
220° at 3 knots 3 miles
Clouds
  • Clear skies
Conditions
  • Mist
Temperature Dewpoint
-5°C / 23°F -7°C / 19°F
Humidity Altimeter Pressure
86% 30.11" Hg 1020 hPa